createdAt,value
2022-10-31T00:00:00.242Z,98574.91
2022-10-31T00:03:03.729Z,98579.25
2022-10-31T00:06:08.769Z,98585.13
2022-10-31T00:09:12.167Z,98594.25
2022-10-31T00:12:15.275Z,98588.47
2022-10-31T00:15:18.395Z,98590.56
2022-10-31T00:18:21.684Z,98590.56
2022-10-31T00:21:26.993Z,98587.63
2022-10-31T00:24:30.077Z,98592.03
2022-10-31T00:27:33.328Z,98589.66
2022-10-31T00:30:36.596Z,98582.91
2022-10-31T00:33:41.236Z,98593.41
2022-10-31T00:36:45.852Z,98592.75
2022-10-31T00:39:50.554Z,98594.88
2022-10-31T00:42:53.940Z,98596.25
2022-10-31T00:45:57.169Z,98594.88
2022-10-31T00:49:01.582Z,98597.16
2022-10-31T00:52:06.340Z,98598.63
2022-10-31T00:55:10.097Z,98599.94
2022-10-31T01:01:22.491Z,98598.97
2022-10-31T01:04:26.224Z,98591.47
2022-10-31T01:07:30.690Z,98605.44
2022-10-31T01:10:34.117Z,98595.75
2022-10-31T01:13:37.486Z,98594.38
2022-10-31T01:16:40.556Z,98597.69
2022-10-31T01:19:43.577Z,98589.28
2022-10-31T01:22:47.961Z,98591.13
2022-10-31T01:25:51.059Z,98566.63
2022-10-31T01:28:56.880Z,98593.03
2022-10-31T01:32:00.000Z,98594.78
2022-10-31T01:35:03.087Z,98598.47
2022-10-31T01:38:07.753Z,98592.69
2022-10-31T01:41:14.016Z,98595.38
2022-10-31T01:45:00.045Z,98597.59
2022-10-31T01:48:04.082Z,98592.31
2022-10-31T01:51:07.684Z,98591.34
2022-10-31T01:54:17.236Z,98591.78
2022-10-31T01:57:22.457Z,98586.78
2022-10-31T02:00:27.858Z,98591.88
2022-10-31T02:03:31.987Z,98584.44
2022-10-31T02:06:39.715Z,98589.31
2022-10-31T02:09:46.993Z,98589.97
2022-10-31T02:12:52.302Z,98588.34
2022-10-31T02:15:59.404Z,98586.81
2022-10-31T02:19:02.667Z,98584.69
2022-10-31T02:22:14.784Z,98582.06
2022-10-31T02:25:42.336Z,98576.34
2022-10-31T02:29:07.031Z,98576.75
2022-10-31T02:32:17.951Z,98576.28
2022-10-31T02:35:31.347Z,98572.25
2022-10-31T02:38:52.137Z,98570.59
2022-10-31T02:42:11.454Z,98568.75
2022-10-31T02:45:20.219Z,98573.09
2022-10-31T02:48:29.768Z,98568.50
2022-10-31T02:51:33.076Z,98569.91
2022-10-31T02:54:36.239Z,98571.41
2022-10-31T02:57:41.764Z,98569.06
2022-10-31T03:00:58.376Z,98575.00
2022-10-31T03:04:25.217Z,98573.41
2022-10-31T03:07:41.757Z,98576.03
2022-10-31T03:10:49.312Z,98569.06
2022-10-31T03:13:59.625Z,98547.19
2022-10-31T03:17:08.004Z,98566.53
2022-10-31T03:20:13.084Z,98562.88
2022-10-31T03:23:20.391Z,98553.84
2022-10-31T03:26:27.662Z,98552.97
2022-10-31T03:29:35.447Z,98565.81
2022-10-31T03:32:43.141Z,98561.38
2022-10-31T03:35:50.328Z,98567.81
2022-10-31T03:38:54.417Z,98493.50
2022-10-31T03:42:00.739Z,98567.25
2022-10-31T03:45:10.054Z,98564.06
2022-10-31T03:48:14.973Z,98542.94
2022-10-31T03:51:25.397Z,98565.84
2022-10-31T03:54:38.553Z,98568.47
2022-10-31T03:57:45.097Z,98566.84
2022-10-31T04:00:53.457Z,98571.66
2022-10-31T04:03:58.335Z,98560.22
2022-10-31T04:07:05.281Z,98553.72
2022-10-31T04:10:12.989Z,98575.97
2022-10-31T04:13:24.966Z,98580.59
2022-10-31T04:16:37.515Z,98580.69
2022-10-31T04:19:40.676Z,98571.47
2022-10-31T04:22:45.693Z,98578.16
2022-10-31T04:25:48.802Z,98574.41
2022-10-31T04:28:53.578Z,98550.97
2022-10-31T04:34:19.444Z,98567.00
2022-10-31T04:37:22.605Z,98575.03
2022-10-31T04:40:26.318Z,98577.16
2022-10-31T04:43:47.911Z,98569.88
2022-10-31T04:46:51.049Z,98491.56
2022-10-31T04:49:55.521Z,98569.13
2022-10-31T04:52:58.717Z,98556.59
2022-10-31T04:56:06.501Z,98563.88
2022-10-31T04:59:17.579Z,98564.88
2022-10-31T05:02:30.746Z,98558.41
2022-10-31T05:05:37.064Z,98561.03
2022-10-31T05:08:40.668Z,98535.13
2022-10-31T05:11:45.099Z,98562.09
2022-10-31T05:15:03.637Z,98533.38
2022-10-31T05:18:25.218Z,98557.09
2022-10-31T05:21:48.281Z,98546.09
2022-10-31T05:24:51.434Z,98553.97
2022-10-31T05:27:56.646Z,98513.47
2022-10-31T05:30:59.868Z,98554.03
2022-10-31T05:34:02.990Z,98557.19
2022-10-31T05:37:30.295Z,98554.09
2022-10-31T05:40:33.595Z,98564.47
2022-10-31T05:43:36.760Z,98566.34
2022-10-31T05:46:43.491Z,98563.03
2022-10-31T05:50:12.827Z,98564.81
2022-10-31T05:53:25.518Z,98532.66
2022-10-31T05:56:28.620Z,98569.38
2022-10-31T05:59:31.942Z,98563.78
2022-10-31T06:02:35.533Z,98572.38
2022-10-31T06:05:58.988Z,98567.88
2022-10-31T06:09:08.970Z,98561.88
2022-10-31T06:12:13.231Z,98549.91
2022-10-31T06:15:34.670Z,98572.09
2022-10-31T06:18:37.912Z,98568.84
2022-10-31T06:21:41.090Z,98563.44
2022-10-31T06:24:45.772Z,98565.00
2022-10-31T06:28:11.121Z,98566.78
2022-10-31T06:31:33.293Z,98496.47
2022-10-31T06:34:37.008Z,98560.75
2022-10-31T06:37:41.883Z,98567.72
2022-10-31T06:41:06.357Z,98562.28
2022-10-31T06:44:19.333Z,98569.88
2022-10-31T06:47:31.278Z,98567.25
2022-10-31T06:50:43.906Z,98576.41
2022-10-31T06:53:47.172Z,98575.44
2022-10-31T06:56:54.558Z,98575.75
2022-10-31T06:59:58.726Z,98578.44
2022-10-31T07:03:13.669Z,98518.84
2022-10-31T07:06:17.011Z,98577.97
2022-10-31T07:09:20.203Z,98579.47
2022-10-31T07:12:25.291Z,98584.44
2022-10-31T07:15:36.687Z,98580.72
2022-10-31T07:18:39.926Z,98584.78
2022-10-31T07:21:43.318Z,98588.47
2022-10-31T07:24:50.347Z,98596.06
2022-10-31T07:28:13.402Z,98593.28
2022-10-31T07:31:16.646Z,98594.31
2022-10-31T07:34:19.907Z,98593.31
2022-10-31T07:37:52.344Z,98560.97
2022-10-31T07:40:56.082Z,98588.84
2022-10-31T07:44:01.786Z,98592.16
2022-10-31T07:47:23.425Z,98585.66
2022-10-31T07:51:04.902Z,98590.97
2022-10-31T07:54:28.536Z,98596.22
2022-10-31T07:57:34.494Z,98577.72
2022-10-31T08:00:40.883Z,98582.22
2022-10-31T08:03:44.897Z,98576.06
2022-10-31T08:07:26.446Z,98571.81
2022-10-31T08:10:38.503Z,98564.19
2022-10-31T08:13:43.683Z,98554.41
2022-10-31T08:16:51.066Z,98560.94
2022-10-31T08:19:54.128Z,98558.63
2022-10-31T08:23:03.661Z,98547.13
2022-10-31T08:26:08.979Z,98554.66
2022-10-31T08:29:13.704Z,98551.16
2022-10-31T08:32:19.321Z,98556.13
2022-10-31T08:35:34.492Z,98544.91
2022-10-31T08:39:01.578Z,98543.88
2022-10-31T08:42:05.802Z,98566.59
2022-10-31T08:45:09.551Z,98560.97
2022-10-31T08:48:15.955Z,98537.03
2022-10-31T08:51:19.383Z,98548.06
2022-10-31T08:54:24.729Z,98535.25
2022-10-31T08:57:27.814Z,98534.56
2022-10-31T09:00:31.242Z,98526.69
2022-10-31T09:03:44.329Z,98519.88
2022-10-31T09:07:19.775Z,98492.38
2022-10-31T09:10:11.006Z,98507.84
2022-10-31T09:13:16.882Z,98504.88
2022-10-31T09:16:55.141Z,98514.22
2022-10-31T09:20:04.975Z,98476.25
2022-10-31T09:23:12.996Z,98500.34
2022-10-31T09:26:16.130Z,98497.50
2022-10-31T09:29:51.299Z,98504.72
2022-10-31T09:32:59.249Z,98496.59
2022-10-31T09:36:03.995Z,98499.53
2022-10-31T09:39:08.319Z,98497.19
2022-10-31T09:42:39.798Z,98479.72
2022-10-31T09:46:00.624Z,98486.28
2022-10-31T09:49:35.071Z,98490.56
2022-10-31T09:52:45.624Z,98489.41
2022-10-31T09:55:51.601Z,98482.00
2022-10-31T09:58:59.075Z,98484.06
2022-10-31T10:02:05.234Z,98473.56
2022-10-31T10:05:13.944Z,98468.50
2022-10-31T10:08:24.669Z,98462.44
2022-10-31T10:12:05.220Z,98459.34
2022-10-31T10:15:27.225Z,98453.75
2022-10-31T10:18:42.337Z,98450.31
2022-10-31T10:21:53.035Z,98440.06
2022-10-31T10:25:12.529Z,98445.25
2022-10-31T10:28:23.319Z,98436.88
2022-10-31T10:34:24.967Z,98430.69
2022-10-31T10:37:32.851Z,98429.34
2022-10-31T10:40:35.738Z,98422.38
2022-10-31T10:43:39.796Z,98426.44
2022-10-31T10:47:02.465Z,98407.19
2022-10-31T10:50:12.246Z,98402.28
2022-10-31T10:53:36.172Z,98407.34
2022-10-31T10:56:47.968Z,98399.28
2022-10-31T10:59:51.317Z,98394.69
2022-10-31T11:02:54.914Z,98389.69
2022-10-31T11:06:02.108Z,98396.88
2022-10-31T11:09:11.862Z,98381.59
2022-10-31T11:12:23.006Z,98382.03
2022-10-31T11:15:28.341Z,98377.31
2022-10-31T11:18:33.753Z,98368.41
2022-10-31T11:21:38.229Z,98349.88
2022-10-31T11:24:42.951Z,98360.84
2022-10-31T11:27:46.528Z,98352.88
2022-10-31T11:30:52.220Z,98340.41
2022-10-31T11:34:00.951Z,98347.06
2022-10-31T11:37:14.818Z,98346.25
2022-10-31T11:40:21.332Z,98341.97
2022-10-31T11:43:25.375Z,98336.31
2022-10-31T11:46:35.358Z,98330.53
2022-10-31T11:49:41.874Z,98322.19
2022-10-31T11:52:46.665Z,98308.38
2022-10-31T11:56:01.957Z,98316.13
2022-10-31T11:59:07.528Z,98314.84
2022-10-31T12:02:21.011Z,98314.84
2022-10-31T12:05:32.052Z,98309.97
2022-10-31T12:08:38.537Z,98300.59
2022-10-31T12:11:51.651Z,98298.09
2022-10-31T12:15:05.291Z,98295.59
2022-10-31T12:18:38.971Z,98305.81
2022-10-31T12:21:59.818Z,98290.69
2022-10-31T12:25:19.791Z,98288.22
2022-10-31T12:28:55.498Z,98290.72
2022-10-31T12:32:15.918Z,98272.34
2022-10-31T12:35:32.173Z,98266.00
2022-10-31T12:38:59.634Z,98268.50
2022-10-31T12:42:15.283Z,98265.44
2022-10-31T12:45:36.050Z,98261.59
2022-10-31T12:49:00.164Z,98258.03
2022-10-31T12:52:15.829Z,98249.44
2022-10-31T12:55:35.089Z,98247.31
2022-10-31T12:58:45.553Z,98243.50
2022-10-31T13:01:53.628Z,98237.75
2022-10-31T13:04:59.737Z,98232.72
2022-10-31T13:08:08.526Z,98231.19
2022-10-31T13:11:15.745Z,98201.03
2022-10-31T13:14:27.668Z,98225.09
2022-10-31T13:17:36.782Z,98217.69
2022-10-31T13:20:44.151Z,98212.47
2022-10-31T13:23:51.761Z,98211.94
2022-10-31T13:26:58.457Z,98205.94
2022-10-31T13:30:06.664Z,98197.53
2022-10-31T13:33:16.023Z,98193.03
2022-10-31T13:36:28.234Z,98190.97
2022-10-31T13:39:41.901Z,98195.78
2022-10-31T13:42:55.970Z,98192.66
2022-10-31T13:46:00.485Z,98189.31
2022-10-31T13:49:03.858Z,98189.31
2022-10-31T13:52:14.819Z,98185.63
2022-10-31T13:55:52.389Z,98183.94
2022-10-31T13:59:21.682Z,98182.41
2022-10-31T14:02:29.652Z,98177.41
2022-10-31T14:05:35.235Z,98150.22
2022-10-31T14:08:42.689Z,98166.66
2022-10-31T14:11:48.458Z,98138.25
2022-10-31T14:14:54.934Z,98165.13
2022-10-31T14:18:01.601Z,98162.59
2022-10-31T14:21:16.405Z,98169.56
2022-10-31T14:24:37.942Z,98156.88
2022-10-31T14:27:48.726Z,98160.38
2022-10-31T14:30:57.076Z,98153.69
2022-10-31T14:34:02.709Z,98161.88
2022-10-31T14:37:34.881Z,98158.75
2022-10-31T14:44:30.997Z,98154.97
2022-10-31T14:47:45.054Z,98154.16
2022-10-31T14:50:52.521Z,98152.84
2022-10-31T14:53:58.286Z,98136.56
2022-10-31T14:57:08.875Z,98141.50
2022-10-31T15:00:19.421Z,98142.97
2022-10-31T15:03:30.620Z,98147.66
2022-10-31T15:06:42.535Z,98143.47
2022-10-31T15:09:46.467Z,98150.00
2022-10-31T15:12:49.599Z,98141.94
2022-10-31T15:15:56.290Z,98142.28
2022-10-31T15:19:01.711Z,98132.06
2022-10-31T15:22:06.276Z,98144.31
2022-10-31T15:25:19.518Z,98135.75
2022-10-31T15:28:25.763Z,98144.13
2022-10-31T15:31:29.238Z,98155.75
2022-10-31T15:34:40.521Z,98148.84
2022-10-31T15:37:45.260Z,98149.56
2022-10-31T15:40:55.254Z,98149.88
2022-10-31T15:44:05.420Z,98143.59
2022-10-31T15:47:18.791Z,98140.09
2022-10-31T15:50:25.727Z,98145.88
2022-10-31T15:53:38.335Z,98150.84
2022-10-31T15:56:44.995Z,98143.75
2022-10-31T15:59:49.991Z,98145.00
2022-10-31T16:03:05.040Z,98142.56
2022-10-31T16:06:09.002Z,98147.78
2022-10-31T16:09:23.907Z,98133.25
2022-10-31T16:12:36.875Z,98114.59
2022-10-31T16:15:40.141Z,98150.84
2022-10-31T16:18:44.253Z,98163.91
2022-10-31T16:21:49.726Z,98172.06
2022-10-31T16:24:59.399Z,98170.50
2022-10-31T16:28:06.507Z,98172.69
2022-10-31T16:34:26.536Z,98183.66
2022-10-31T16:37:30.327Z,98185.03
2022-10-31T16:40:34.530Z,98187.66
2022-10-31T16:43:37.729Z,98184.47
2022-10-31T16:46:41.005Z,98174.63
2022-10-31T16:49:48.296Z,98181.47
2022-10-31T16:56:19.082Z,98194.53
2022-10-31T16:59:22.279Z,98193.75
2022-10-31T17:02:25.856Z,98207.13
2022-10-31T17:05:32.852Z,98203.03
2022-10-31T17:08:36.375Z,98191.44
2022-10-31T17:11:49.323Z,98185.53
2022-10-31T17:14:53.981Z,98201.47
2022-10-31T17:17:57.473Z,98200.41
2022-10-31T17:21:06.031Z,98183.28
2022-10-31T17:24:13.306Z,98196.03
2022-10-31T17:27:16.408Z,98192.38
2022-10-31T17:30:21.942Z,98190.81
2022-10-31T17:33:25.027Z,98187.34
2022-10-31T17:36:29.514Z,98190.56
2022-10-31T17:39:32.702Z,98173.59
2022-10-31T17:42:35.878Z,98187.34
2022-10-31T17:45:40.787Z,98152.78
2022-10-31T17:48:43.908Z,98181.09
2022-10-31T17:51:48.427Z,98177.41
2022-10-31T17:54:51.517Z,98176.28
2022-10-31T17:57:54.638Z,98170.16
2022-10-31T18:00:58.161Z,98165.66
2022-10-31T18:04:01.245Z,98164.81
2022-10-31T18:07:05.945Z,98166.31
2022-10-31T18:10:10.240Z,98171.84
2022-10-31T18:13:13.419Z,98168.25
2022-10-31T18:16:19.092Z,98181.66
2022-10-31T18:19:22.174Z,98183.31
2022-10-31T18:22:26.731Z,98189.63
2022-10-31T18:25:29.908Z,98187.19
2022-10-31T18:28:33.431Z,98184.34
2022-10-31T18:31:37.088Z,98173.28
2022-10-31T18:34:40.179Z,98162.25
2022-10-31T18:37:44.970Z,98160.72
2022-10-31T18:40:48.224Z,98167.06
2022-10-31T18:43:52.094Z,98159.44
2022-10-31T18:46:55.206Z,98165.16
2022-10-31T18:49:58.333Z,98158.13
2022-10-31T18:53:03.115Z,98156.31
2022-10-31T18:56:09.092Z,98159.44
2022-10-31T18:59:12.574Z,98144.41
2022-10-31T19:02:17.343Z,98153.41
2022-10-31T19:05:22.125Z,98154.66
2022-10-31T19:11:35.807Z,98155.03
2022-10-31T19:14:39.057Z,98146.47
2022-10-31T19:17:42.134Z,98154.44
2022-10-31T19:20:45.258Z,98150.84
2022-10-31T19:23:49.859Z,98151.31
2022-10-31T19:26:52.949Z,98150.38
2022-10-31T19:29:56.318Z,98143.16
2022-10-31T19:32:59.579Z,98143.38
2022-10-31T19:36:03.952Z,98145.06
2022-10-31T19:39:08.525Z,98136.81
2022-10-31T19:42:11.665Z,98135.06
2022-10-31T19:45:15.394Z,98132.53
2022-10-31T19:48:18.510Z,98127.16
2022-10-31T19:51:22.548Z,98125.38
2022-10-31T19:54:27.021Z,98130.63
2022-10-31T19:57:56.313Z,98127.97
2022-10-31T20:00:54.177Z,98125.00
2022-10-31T20:03:57.414Z,98126.13
2022-10-31T20:07:00.501Z,98130.72
2022-10-31T20:10:05.300Z,98126.22
2022-10-31T20:13:08.439Z,98122.59
2022-10-31T20:16:13.867Z,98129.03
2022-10-31T20:19:16.996Z,98122.56
2022-10-31T20:22:20.477Z,98114.59
2022-10-31T20:25:24.942Z,98108.41
2022-10-31T20:28:28.571Z,98104.81
2022-10-31T20:31:33.121Z,98108.09
2022-10-31T20:34:36.731Z,98116.63
2022-10-31T20:37:39.893Z,98107.25
2022-10-31T20:40:44.499Z,98112.72
2022-10-31T20:43:48.064Z,98105.84
2022-10-31T20:46:51.369Z,98098.31
2022-10-31T20:49:54.591Z,98100.41
2022-10-31T20:52:57.671Z,98106.50
2022-10-31T20:56:06.957Z,98125.91
2022-10-31T20:59:12.322Z,98126.41
2022-10-31T21:02:15.733Z,98119.72
2022-10-31T21:05:21.006Z,98122.66
2022-10-31T21:08:24.862Z,98087.09
2022-10-31T21:11:29.868Z,98125.81
2022-10-31T21:14:33.068Z,98115.72
2022-10-31T21:17:36.549Z,98130.72
2022-10-31T21:20:41.648Z,98104.66
2022-10-31T21:23:45.084Z,98124.19
2022-10-31T21:26:52.205Z,98117.13
2022-10-31T21:29:55.347Z,98116.09
2022-10-31T21:32:58.371Z,98111.84
2022-10-31T21:36:01.551Z,98113.47
2022-10-31T21:39:06.662Z,98105.53
2022-10-31T21:42:11.316Z,98104.31
2022-10-31T21:45:14.626Z,98094.38
2022-10-31T21:48:17.717Z,98078.41
2022-10-31T21:51:23.346Z,98071.38
2022-10-31T21:54:30.239Z,98076.41
2022-10-31T21:57:34.928Z,98075.50
2022-10-31T22:00:38.028Z,98056.53
2022-10-31T22:03:42.635Z,98069.97
2022-10-31T22:06:45.857Z,98057.34
2022-10-31T22:09:49.092Z,98066.56
2022-10-31T22:12:53.519Z,98054.34
2022-10-31T22:16:00.529Z,98057.75
2022-10-31T22:19:05.626Z,98052.41
2022-10-31T22:22:08.919Z,98055.44
2022-10-31T22:25:12.098Z,98062.97
2022-10-31T22:28:16.551Z,98080.59
2022-10-31T22:34:19.954Z,98075.09
2022-10-31T22:37:23.104Z,98062.44
2022-10-31T22:40:26.211Z,98080.34
2022-10-31T22:43:29.276Z,98099.25
2022-10-31T22:46:34.327Z,98088.63
2022-10-31T22:49:38.836Z,98097.47
2022-10-31T22:52:41.964Z,98103.06
2022-10-31T22:55:45.071Z,98102.06
2022-10-31T22:58:49.358Z,98109.25
2022-10-31T23:01:54.344Z,98100.94
2022-10-31T23:04:58.991Z,98110.47
2022-10-31T23:08:02.397Z,98110.72
2022-10-31T23:11:14.844Z,98113.59
2022-10-31T23:14:20.583Z,98114.78
2022-10-31T23:17:23.956Z,98111.06
2022-10-31T23:20:28.515Z,98098.47
2022-10-31T23:23:35.130Z,98121.16
2022-10-31T23:26:56.438Z,98120.84
2022-10-31T23:30:00.227Z,98092.06
2022-10-31T23:33:03.790Z,98111.31
2022-10-31T23:36:09.551Z,98106.69
2022-10-31T23:39:12.711Z,98109.13
2022-10-31T23:42:16.596Z,98084.97
2022-10-31T23:45:19.717Z,98110.47
2022-10-31T23:48:23.013Z,98099.19
2022-10-31T23:51:27.415Z,98097.50
2022-10-31T23:54:31.031Z,98078.72
2022-10-31T23:57:34.160Z,98098.59
